Time;durP1;ratioP1;P1;durP2;ratioP2;P2;SDS_P1;SDS_P2;PMS_P1;PMS_P2;Temp;Humidity;BMP_temperature;BMP_pressure;BME280_temperature;BME280_humidity;BME280_pressure;Samples;Min_cycle;Max_cycle;Signal;HPM_P1;HPM_P2
2021/05/23 13:33:01;;;;;;;13.05;2.85;;;;;;;;;;5032941;27;20440;-64
2021/05/23 13:37:46;;;;;;;5.20;2.30;;;;;;;25.48;39.53;96598.41;4978400;27;102247;-64
2021/05/23 13:40:12;;;;;;;3.53;2.00;;;;;;;25.50;39.70;96595.59;4947693;28;122377;-66
2021/05/23 13:42:38;;;;;;;3.13;2.03;;;;;;;25.52;38.45;96598.94;5050411;28;20075;-69
2021/05/23 13:45:07;;;;;;;5.20;1.98;;;;;;;25.32;40.05;96595.53;5049189;28;20060;-69
2021/05/23 13:47:33;;;;;;;5.40;2.08;;;;;;;25.34;40.74;96602.44;5049242;28;20075;-66
2021/05/23 13:49:58;;;;;;;3.17;2.40;;;;;;;25.34;40.25;96604.25;5040888;28;20026;-66
2021/05/23 13:52:24;;;;;;;3.30;2.10;;;;;;;25.32;40.52;96599.06;5030368;28;20022;-65
2021/05/23 13:54:50;;;;;;;2.05;1.85;;;;;;;25.40;38.63;96602.84;5030232;28;20028;-68
2021/05/23 13:57:16;;;;;;;3.47;2.08;;;;;;;25.17;39.22;96590.72;5030465;28;20026;-67
2021/05/23 13:59:42;;;;;;;5.32;2.30;;;;;;;25.21;39.07;96591.25;5030486;28;20052;-68
2021/05/23 14:02:07;;;;;;;3.53;1.80;;;;;;;25.20;40.00;96597.59;5029574;28;20083;-71
2021/05/23 14:04:33;;;;;;;1.98;1.70;;;;;;;25.20;39.43;96587.72;5029853;28;20032;-70
2021/05/23 14:06:59;;;;;;;5.30;2.10;;;;;;;25.17;41.21;96589.84;5050604;28;20497;-69
2021/05/23 14:09:25;;;;;;;3.17;1.92;;;;;;;25.26;38.89;96575.59;5050712;28;20083;-65
2021/05/23 14:11:53;;;;;;;5.13;2.13;;;;;;;25.27;39.23;96579.94;5047715;28;20021;-66
2021/05/23 14:14:19;;;;;;;6.65;2.10;;;;;;;25.31;40.85;96583.16;5050519;28;20037;-64
2021/05/23 14:16:45;;;;;;;5.30;2.22;;;;;;;25.30;41.42;96576.97;5049588;28;20037;-66
2021/05/23 14:19:10;;;;;;;3.38;1.98;;;;;;;25.33;41.43;96578.50;5049165;28;20021;-67
2021/05/23 14:21:36;;;;;;;4.40;2.30;;;;;;;25.36;39.86;96576.38;4984517;28;90951;-67
2021/05/23 14:24:04;;;;;;;5.72;1.90;;;;;;;25.39;39.97;96577.88;5039560;28;20109;-66
2021/05/23 14:26:30;;;;;;;3.97;1.90;;;;;;;25.26;42.10;96580.94;5029803;28;20133;-67
2021/05/23 14:28:56;;;;;;;2.80;2.00;;;;;;;25.25;41.21;96573.88;5030812;28;20104;-67
2021/05/23 14:31:22;;;;;;;7.97;2.17;;;;;;;25.23;42.57;96573.22;5031193;28;20032;-67
2021/05/23 14:33:48;;;;;;;3.90;2.15;;;;;;;25.23;42.05;96575.88;5031915;28;20018;-67
2021/05/23 14:36:15;;;;;;;7.93;2.45;;;;;;;25.23;39.99;96575.88;5031263;28;20057;-67
2021/05/23 14:38:41;;;;;;;5.78;1.88;;;;;;;25.18;39.85;96570.97;5032092;28;20044;-67
2021/05/23 14:41:07;;;;;;;9.30;2.28;;;;;;;25.13;41.16;96573.25;5031454;28;20531;-67
2021/05/23 14:43:35;;;;;;;8.00;3.13;;;;;;;25.08;42.75;96565.66;5030851;28;20022;-67
2021/05/23 14:46:01;;;;;;;27.17;6.53;;;;;;;25.09;41.95;96570.03;5030276;28;20582;-67
2021/05/23 14:48:27;;;;;;;21.77;5.50;;;;;;;25.10;42.72;96570.88;5020443;28;20121;-66
2021/05/23 14:50:53;;;;;;;7.50;2.38;;;;;;;25.13;43.73;96567.06;5015872;28;20114;-66
2021/05/23 14:53:19;;;;;;;10.05;2.92;;;;;;;25.07;42.46;96564.00;5017171;28;20076;-66
2021/05/23 14:55:47;;;;;;;15.70;3.90;;;;;;;25.06;41.79;96556.13;5017453;28;20030;-67
2021/05/23 14:58:21;;;;;;;28.73;6.25;;;;;;;25.01;41.53;96556.56;5017178;28;20026;-66
2021/05/23 15:00:55;;;;;;;4.90;2.13;;;;;;;24.97;40.89;96557.84;5017502;28;20357;-67
2021/05/23 15:03:22;;;;;;;2.58;2.08;;;;;;;24.90;40.64;96560.28;5017449;28;20034;-67
2021/05/23 15:05:48;;;;;;;2.20;1.95;;;;;;;24.95;41.04;96554.50;5017385;28;20028;-67
2021/05/23 15:08:15;;;;;;;4.70;2.08;;;;;;;24.93;41.01;96568.03;5016633;28;20101;-66
2021/05/23 15:10:40;;;;;;;5.13;2.17;;;;;;;24.86;41.38;96565.06;5018172;28;20026;-67
2021/05/23 15:13:07;;;;;;;4.47;1.85;;;;;;;24.84;41.69;96561.69;5017065;28;20602;-66
2021/05/23 15:15:33;;;;;;;2.72;2.00;;;;;;;24.85;40.91;96568.72;5016497;28;20029;-67
2021/05/23 15:17:59;;;;;;;4.22;1.60;;;;;;;24.81;40.98;96563.81;5016564;28;20029;-67
2021/05/23 15:20:26;;;;;;;4.90;2.10;;;;;;;24.77;40.90;96565.94;5016462;28;20020;-65
2021/05/23 15:22:52;;;;;;;4.13;2.03;;;;;;;24.76;41.36;96569.59;5016251;28;20061;-66
2021/05/23 15:25:18;;;;;;;3.70;2.20;;;;;;;24.72;41.53;96561.03;5016107;28;20034;-65
2021/05/23 15:36:19;;;;;;;5.55;1.90;;;;;;;23.57;43.99;96535.06;5131843;27;20376;-36
2021/05/23 15:38:45;;;;;;;3.67;1.67;;;;;;;24.09;41.50;96520.56;5133123;27;20035;-60
2021/05/23 15:41:11;;;;;;;1.88;1.70;;;;;;;24.44;40.25;96515.56;5131887;27;20023;-65
2021/05/23 15:43:38;;;;;;;4.13;1.92;;;;;;;24.72;40.55;96515.56;5130401;27;20057;-60
2021/05/23 15:46:04;;;;;;;4.03;1.48;;;;;;;24.94;40.74;96518.03;5134972;27;20016;-65
2021/05/23 15:48:30;;;;;;;4.22;1.80;;;;;;;25.09;40.12;96523.72;5131383;27;20103;-64
2021/05/23 15:50:55;;;;;;;4.05;1.67;;;;;;;25.21;39.33;96516.31;5131583;27;20110;-64
2021/05/23 15:53:22;;;;;;;11.55;1.92;;;;;;;25.34;39.75;96515.94;5131728;27;20418;-64
2021/05/23 15:55:48;;;;;;;2.60;1.75;;;;;;;25.48;40.05;96518.09;5131377;27;20031;-63
2021/05/23 15:58:14;;;;;;;4.15;1.75;;;;;;;25.51;39.81;96516.09;5131298;27;20049;-63
2021/05/23 16:00:41;;;;;;;1.55;1.38;;;;;;;25.46;39.34;96524.56;5131364;27;20028;-63
2021/05/23 16:03:07;;;;;;;4.20;1.58;;;;;;;25.42;39.46;96526.72;5131098;27;20520;-62
2021/05/23 16:05:33;;;;;;;2.00;1.80;;;;;;;25.40;40.13;96530.56;5131264;27;20015;-63
2021/05/23 16:07:59;;;;;;;1.80;1.70;;;;;;;25.30;40.26;96518.09;5131042;27;20020;-64
2021/05/23 16:10:24;;;;;;;7.00;2.00;;;;;;;25.30;41.22;96527.94;5130659;27;20477;-64
2021/05/23 16:12:50;;;;;;;2.60;1.63;;;;;;;25.32;41.03;96534.00;5130906;27;20475;-64
2021/05/23 16:15:16;;;;;;;2.05;1.85;;;;;;;25.36;41.05;96525.50;5131069;27;20023;-64
2021/05/23 16:17:42;;;;;;;3.05;1.67;;;;;;;25.38;41.54;96533.38;5130889;28;20030;-63
2021/05/23 16:20:09;;;;;;;2.67;1.63;;;;;;;25.35;41.71;96537.19;5130766;27;20023;-63
2021/05/23 16:22:35;;;;;;;3.08;2.20;;;;;;;25.30;41.82;96538.63;5130723;27;20023;-63
2021/05/23 16:25:03;;;;;;;2.45;1.98;;;;;;;25.16;42.88;96546.19;5130794;27;20041;-63
2021/05/23 16:27:29;;;;;;;2.33;2.10;;;;;;;25.06;43.08;96542.75;5129288;28;20020;-62
2021/05/23 16:29:54;;;;;;;3.42;2.03;;;;;;;25.02;43.56;96538.69;5130794;27;20027;-63
2021/05/23 16:32:20;;;;;;;3.45;1.58;;;;;;;25.04;43.59;96544.75;5117950;27;20381;-62
2021/05/23 16:34:46;;;;;;;5.53;1.90;;;;;;;25.05;44.33;96544.59;5131153;27;20043;-63
2021/05/23 16:37:11;;;;;;;2.63;1.90;;;;;;;25.05;43.64;96546.41;5150471;27;20015;-63
2021/05/23 16:39:37;;;;;;;3.20;1.60;;;;;;;24.99;43.85;96547.84;5151204;27;20031;-63
2021/05/23 16:42:04;;;;;;;3.80;1.95;;;;;;;24.94;44.78;96539.44;5151163;27;20088;-62
2021/05/23 16:44:29;;;;;;;5.30;2.20;;;;;;;24.88;44.76;96540.88;5151135;27;20030;-62
2021/05/23 16:46:55;;;;;;;5.20;2.50;;;;;;;24.81;45.16;96542.44;5141396;27;20098;-62
2021/05/23 16:49:20;;;;;;;2.25;2.05;;;;;;;24.71;44.69;96553.19;5137143;27;20015;-62
2021/05/23 16:51:47;;;;;;;3.03;1.88;;;;;;;24.71;45.27;96545.16;5137043;27;20023;-62
2021/05/23 16:54:13;;;;;;;2.30;2.00;;;;;;;24.66;46.17;96550.94;5136956;27;20015;-63
2021/05/23 16:56:39;;;;;;;2.65;2.03;;;;;;;24.51;46.63;96565.75;5137003;27;20031;-62
2021/05/23 16:59:05;;;;;;;2.75;2.20;;;;;;;24.29;45.83;96560.59;5137256;27;20469;-62
2021/05/23 17:01:33;;;;;;;6.45;2.03;;;;;;;24.29;46.64;96562.47;5136863;27;20019;-62
2021/05/23 17:03:59;;;;;;;2.60;1.55;;;;;;;24.25;47.55;96564.56;5136781;27;20023;-62
2021/05/23 17:06:25;;;;;;;5.78;2.30;;;;;;;24.21;47.64;96557.81;5137120;27;20072;-62
2021/05/23 17:08:54;;;;;;;7.75;2.88;;;;;;;24.14;48.52;96570.06;5136664;27;20023;-62
2021/05/23 17:11:20;;;;;;;3.90;2.53;;;;;;;24.00;48.37;96580.19;5135584;27;20447;-62
2021/05/23 17:13:46;;;;;;;2.65;2.45;;;;;;;23.87;47.71;96579.63;5111544;27;20020;-62
2021/05/23 17:16:13;;;;;;;4.90;2.17;;;;;;;23.77;48.47;96585.81;5095672;28;20103;-62
2021/05/23 17:18:39;;;;;;;7.45;2.40;;;;;;;23.59;49.68;96577.66;5095720;28;20031;-62
2021/05/23 17:21:05;;;;;;;9.85;2.55;;;;;;;23.50;50.60;96575.84;5095830;28;20032;-62
2021/05/23 17:23:31;;;;;;;8.20;2.30;;;;;;;23.38;51.01;96578.63;5095411;28;20027;-62
2021/05/23 17:25:57;;;;;;;7.40;2.53;;;;;;;23.21;51.96;96580.09;5095540;28;20028;-62
2021/05/23 17:28:23;;;;;;;6.90;2.30;;;;;;;22.97;53.02;96583.97;5095619;28;20020;-46
2021/05/23 17:30:48;;;;;;;9.35;2.75;;;;;;;22.67;54.15;96577.69;5095435;28;20020;-46
2021/05/23 17:33:14;;;;;;;6.53;2.85;;;;;;;22.25;55.20;96586.53;5095260;28;20381;-50
2021/05/23 17:35:40;;;;;;;8.35;2.88;;;;;;;21.92;55.82;96584.81;5094430;28;20536;-46
2021/05/23 17:38:06;;;;;;;5.25;2.60;;;;;;;21.67;56.49;96589.47;5095287;28;20504;-47
2021/05/23 17:40:32;;;;;;;6.70;2.90;;;;;;;21.42;57.24;96579.97;5095274;28;20060;-47
2021/05/23 17:42:59;;;;;;;6.07;3.90;;;;;;;21.19;57.23;96582.72;5093898;28;20029;-49
2021/05/23 17:45:25;;;;;;;9.70;4.00;;;;;;;20.94;57.36;96574.91;5095137;28;20486;-45
2021/05/23 17:47:51;;;;;;;7.65;3.28;;;;;;;20.91;57.34;96576.94;5095130;28;20012;-47
2021/05/23 17:50:21;;;;;;;5.20;2.78;;;;;;;20.86;57.16;96571.13;5094880;28;20519;-51
2021/05/23 17:52:48;;;;;;;3.22;2.55;;;;;;;20.85;57.43;96575.59;5094989;28;20028;-46
2021/05/23 17:55:14;;;;;;;2.97;2.70;;;;;;;20.83;57.17;96580.19;5094773;28;20028;-51
2021/05/23 17:57:41;;;;;;;3.15;2.80;;;;;;;20.92;56.84;96583.97;5093910;28;20016;-46
2021/05/23 18:00:11;;;;;;;7.47;2.70;;;;;;;21.02;56.67;96586.72;5094760;28;20493;-46
2021/05/23 18:02:38;;;;;;;4.57;2.63;;;;;;;20.91;56.60;96585.78;5098410;28;20078;-45
2021/05/23 18:05:05;;;;;;;3.42;2.72;;;;;;;20.74;58.07;96587.06;5114816;28;20031;-48
2021/05/23 18:07:32;;;;;;;4.45;2.70;;;;;;;20.64;58.72;96591.41;5114867;27;20028;-52
2021/05/23 18:09:57;;;;;;;3.05;2.50;;;;;;;20.50;59.19;96598.66;5114654;28;20032;-46
2021/05/23 18:12:24;;;;;;;4.32;2.90;;;;;;;20.28;59.92;96600.31;5114912;28;20034;-46
2021/05/23 18:14:50;;;;;;;7.32;3.08;;;;;;;20.09;60.22;96600.88;5114830;28;20035;-48
2021/05/23 18:17:18;;;;;;;5.50;2.88;;;;;;;19.93;60.70;96609.13;5114515;28;20116;-47
2021/05/23 18:19:43;;;;;;;3.20;2.90;;;;;;;19.83;60.05;96614.25;5114359;28;20028;-47
2021/05/23 18:22:10;;;;;;;5.40;3.10;;;;;;;19.75;60.90;96612.19;5112630;28;20069;-46
2021/05/23 18:24:37;;;;;;;4.22;3.22;;;;;;;19.61;61.44;96607.06;5124082;27;20039;-49
2021/05/23 18:27:04;;;;;;;4.18;3.15;;;;;;;19.47;61.84;96619.53;5123795;27;20047;-47
2021/05/23 18:29:29;;;;;;;6.68;3.25;;;;;;;19.33;62.05;96609.94;5111753;28;20058;-47
2021/05/23 18:31:56;;;;;;;3.47;3.10;;;;;;;19.26;62.47;96611.34;5094186;28;20482;-45
2021/05/23 18:34:22;;;;;;;3.50;3.05;;;;;;;19.18;62.68;96611.91;5093717;28;20027;-46
2021/05/23 18:36:48;;;;;;;5.28;3.17;;;;;;;19.07;62.92;96612.63;5098079;28;20503;-48
2021/05/23 18:39:23;;;;;;;4.20;3.58;;;;;;;18.90;63.43;96612.03;5113176;28;20051;-47
2021/05/23 18:41:52;;;;;;;5.15;3.63;;;;;;;18.75;64.30;96608.66;5113316;28;20032;-49
2021/05/23 18:44:22;;;;;;;3.58;3.25;;;;;;;18.69;64.90;96615.22;5113452;28;20027;-44
2021/05/23 18:46:50;;;;;;;6.40;4.03;;;;;;;18.68;64.81;96615.34;5111889;28;20400;-49
2021/05/23 18:49:17;;;;;;;6.10;3.67;;;;;;;18.80;64.88;96625.09;5113407;28;20050;-51
2021/05/23 18:51:43;;;;;;;9.68;3.90;;;;;;;19.14;64.34;96627.16;5113266;27;20051;-49
2021/05/23 18:54:08;;;;;;;4.72;3.72;;;;;;;19.35;63.53;96621.28;5113614;28;20128;-46
2021/05/23 18:56:37;;;;;;;6.65;3.70;;;;;;;19.51;63.50;96626.28;5113377;28;20034;-48
2021/05/23 18:59:04;;;;;;;3.95;3.55;;;;;;;19.55;63.16;96630.44;5113067;28;20015;-44
2021/05/23 19:01:29;;;;;;;3.47;3.17;;;;;;;19.56;63.28;96628.63;5112004;28;20042;-45
2021/05/23 19:03:55;;;;;;;3.63;3.33;;;;;;;19.50;63.61;96623.78;5112435;28;20027;-48
2021/05/23 19:06:21;;;;;;;7.03;3.90;;;;;;;19.39;63.26;96621.91;5113199;28;20035;-47
2021/05/23 19:08:47;;;;;;;4.20;3.80;;;;;;;19.24;63.51;96621.22;5113114;28;20019;-47
2021/05/23 19:11:13;;;;;;;5.88;3.85;;;;;;;19.13;63.87;96625.47;5112958;28;20019;-48
2021/05/23 19:13:39;;;;;;;4.85;3.63;;;;;;;19.06;64.25;96622.38;5113671;28;20028;-51
2021/05/23 19:16:07;;;;;;;4.65;4.13;;;;;;;18.89;64.67;96622.72;5112565;28;20031;-46
2021/05/23 19:18:32;;;;;;;6.97;4.43;;;;;;;18.79;64.95;96626.03;5113199;28;20015;-51
2021/05/23 19:21:00;;;;;;;5.18;4.00;;;;;;;18.79;65.14;96627.84;5119502;27;20034;-48
2021/05/23 19:23:26;;;;;;;5.18;3.92;;;;;;;18.76;65.29;96630.72;5112557;27;20454;-46
2021/05/23 19:25:52;;;;;;;6.55;3.75;;;;;;;18.78;65.52;96647.34;5112981;28;20023;-47
2021/05/23 19:28:23;;;;;;;5.72;3.97;;;;;;;18.84;65.11;96644.25;5112770;28;20059;-49
2021/05/23 19:30:53;;;;;;;5.30;3.90;;;;;;;18.82;65.63;96639.06;5113621;28;20023;-44
2021/05/23 19:33:24;;;;;;;6.00;3.50;;;;;;;18.77;65.11;96643.84;5113452;28;20065;-48
2021/05/23 19:35:55;;;;;;;11.60;5.50;;;;;;;18.64;65.69;96643.88;5113269;28;20454;-46
2021/05/23 19:38:23;;;;;;;4.88;4.28;;;;;;;18.48;65.96;96646.69;5113589;28;20039;-45
2021/05/23 19:40:51;;;;;;;5.05;4.45;;;;;;;18.36;66.47;96643.09;5108675;28;20469;-53
2021/05/23 19:43:25;;;;;;;5.85;4.35;;;;;;;18.31;66.99;96639.91;5112034;28;20090;-50
2021/05/23 19:45:55;;;;;;;8.13;4.93;;;;;;;18.29;66.74;96645.31;5112257;28;20534;-50
2021/05/23 19:48:24;;;;;;;13.23;4.30;;;;;;;18.28;66.67;96651.56;5113408;28;20035;-55
2021/05/23 19:50:51;;;;;;;6.55;3.97;;;;;;;18.27;66.79;96643.75;5113133;28;20063;-47
2021/05/23 19:53:18;;;;;;;8.60;4.78;;;;;;;18.20;66.68;96640.63;5113575;28;20026;-51
2021/05/23 19:55:46;;;;;;;5.25;4.30;;;;;;;18.14;67.01;96643.69;5112116;28;20039;-52
2021/05/23 19:58:14;;;;;;;7.72;4.75;;;;;;;18.09;67.08;96633.38;5111855;28;20069;-48
2021/05/23 20:00:42;;;;;;;8.43;4.43;;;;;;;18.10;66.85;96631.59;5111464;28;20126;-48
2021/05/23 20:03:09;;;;;;;6.75;4.53;;;;;;;18.08;66.88;96638.78;5111949;28;20028;-52
2021/05/23 20:05:36;;;;;;;5.03;4.38;;;;;;;17.93;67.25;96652.09;5112103;28;20062;-49
2021/05/23 20:08:04;;;;;;;7.35;4.45;;;;;;;17.83;67.50;96649.22;5112106;28;20023;-48
2021/05/23 20:10:32;;;;;;;13.10;4.97;;;;;;;17.68;67.87;96643.13;5112430;28;20042;-48
2021/05/23 20:12:59;;;;;;;8.38;5.00;;;;;;;17.62;68.03;96640.88;5111447;28;20438;-45
2021/05/23 20:15:32;;;;;;;5.10;4.60;;;;;;;17.60;68.56;96650.69;5113193;28;20019;-52
2021/05/23 20:18:01;;;;;;;5.70;4.35;;;;;;;17.55;68.36;96654.50;5113251;28;20059;-47
2021/05/23 20:20:32;;;;;;;7.85;5.10;;;;;;;17.51;68.37;96653.00;5112872;28;20066;-52
2021/05/23 20:22:59;;;;;;;5.00;4.13;;;;;;;17.46;68.71;96649.78;5116680;28;20035;-51
2021/05/23 20:25:26;;;;;;;9.18;4.32;;;;;;;17.38;68.61;96652.97;5117133;28;20119;-49
2021/05/23 20:27:52;;;;;;;6.28;4.95;;;;;;;17.32;69.09;96653.34;5116778;28;20020;-47
2021/05/23 20:30:20;;;;;;;4.63;4.18;;;;;;;17.30;68.83;96652.56;5116935;28;20024;-48
2021/05/23 20:32:47;;;;;;;4.90;4.40;;;;;;;17.24;69.22;96653.81;5116933;28;20098;-46
2021/05/23 20:35:18;;;;;;;4.97;4.40;;;;;;;17.26;69.40;96659.88;5116442;28;20054;-45
2021/05/23 20:37:44;;;;;;;5.25;4.35;;;;;;;17.21;69.54;96666.38;5116903;28;20054;-44
2021/05/23 20:40:13;;;;;;;7.80;4.13;;;;;;;17.16;69.64;96664.03;5116537;28;20543;-50
2021/05/23 20:42:39;;;;;;;5.70;4.60;;;;;;;17.05;69.78;96660.25;5116637;28;20026;-45
2021/05/23 20:45:06;;;;;;;6.28;4.72;;;;;;;16.98;69.97;96658.09;5116633;28;20032;-51
2021/05/23 20:47:32;;;;;;;5.82;4.53;;;;;;;16.91;69.92;96661.09;5116176;28;20027;-53
2021/05/23 20:49:58;;;;;;;6.90;4.40;;;;;;;16.89;70.11;96665.63;5116740;28;20043;-50
2021/05/23 20:52:24;;;;;;;9.07;4.68;;;;;;;16.89;69.96;96664.78;5116699;28;20023;-49
2021/05/23 20:54:50;;;;;;;8.88;4.65;;;;;;;16.87;69.95;96667.53;5116386;28;20541;-48
2021/05/23 20:57:16;;;;;;;8.18;4.38;;;;;;;16.79;70.56;96669.75;5115057;28;20407;-49
2021/05/23 20:59:42;;;;;;;10.40;4.90;;;;;;;16.64;70.89;96669.78;5116373;28;20024;-48
2021/05/23 21:02:09;;;;;;;5.32;4.50;;;;;;;16.57;71.04;96679.00;5116318;28;20067;-50
2021/05/23 21:04:37;;;;;;;8.65;5.13;;;;;;;16.46;71.56;96677.00;5116336;28;20358;-49
2021/05/23 21:07:04;;;;;;;6.28;4.72;;;;;;;16.40;71.70;96672.09;5116203;28;20377;-50
2021/05/23 21:09:31;;;;;;;6.32;5.25;;;;;;;16.33;71.80;96676.91;5115693;28;20423;-51
2021/05/23 21:11:58;;;;;;;6.40;4.63;;;;;;;16.28;72.31;96677.16;5116259;28;20028;-47
2021/05/23 21:14:25;;;;;;;7.40;5.22;;;;;;;16.33;72.41;96683.94;5116147;28;20027;-50
2021/05/23 21:16:55;;;;;;;7.13;5.00;;;;;;;16.39;72.01;96686.22;5116153;28;20442;-48
2021/05/23 21:19:21;;;;;;;9.65;5.45;;;;;;;16.44;71.73;96678.91;5115644;28;20088;-48
2021/05/23 21:21:47;;;;;;;4.60;4.10;;;;;;;16.36;71.90;96674.06;5115979;28;20238;-48
2021/05/23 21:24:13;;;;;;;4.82;4.28;;;;;;;16.27;72.09;96674.59;5115828;28;20546;-48
2021/05/23 21:26:39;;;;;;;5.82;4.70;;;;;;;16.31;71.67;96675.28;5115470;28;20020;-48
2021/05/23 21:29:05;;;;;;;4.65;4.18;;;;;;;16.27;71.73;96677.25;5115963;28;20028;-46
2021/05/23 21:31:31;;;;;;;6.05;4.68;;;;;;;16.27;71.75;96671.97;5115696;28;20028;-51
2021/05/23 21:33:57;;;;;;;6.50;4.60;;;;;;;16.31;71.58;96665.56;5115660;28;20092;-47
2021/05/23 21:36:23;;;;;;;7.88;4.60;;;;;;;16.32;71.44;96663.78;5114982;28;20036;-50
2021/05/23 21:38:49;;;;;;;5.10;4.60;;;;;;;16.29;71.32;96662.19;5115661;28;20110;-46
2021/05/23 21:41:15;;;;;;;5.28;4.40;;;;;;;16.22;71.33;96663.50;5115558;28;20046;-49
2021/05/23 21:43:41;;;;;;;7.78;4.40;;;;;;;16.19;71.66;96661.03;5115582;28;20359;-47
2021/05/23 21:46:06;;;;;;;6.78;3.83;;;;;;;16.13;71.62;96657.81;5114488;28;20042;-51
2021/05/23 21:48:33;;;;;;;8.68;4.93;;;;;;;16.13;71.36;96660.44;5115631;27;20022;-54
2021/05/23 21:51:00;;;;;;;6.70;4.00;;;;;;;16.14;71.02;96656.03;5114699;28;20430;-47
2021/05/23 21:53:26;;;;;;;6.57;4.63;;;;;;;16.06;71.15;96664.38;5115335;28;20106;-47
2021/05/23 21:55:52;;;;;;;7.20;3.75;;;;;;;16.09;71.07;96660.69;5115205;28;20024;-51
2021/05/23 21:58:19;;;;;;;4.78;4.18;;;;;;;16.07;70.97;96666.06;5115245;28;20031;-51
2021/05/23 22:00:46;;;;;;;6.20;4.65;;;;;;;16.07;70.67;96675.78;5115161;28;20473;-52
2021/05/23 22:03:13;;;;;;;6.85;4.55;;;;;;;16.01;70.91;96677.84;5114610;28;20032;-47
2021/05/23 22:05:39;;;;;;;5.65;4.40;;;;;;;15.97;70.73;96681.59;5114911;28;20039;-50
2021/05/23 22:08:06;;;;;;;7.25;4.65;;;;;;;15.98;71.06;96680.66;5114963;28;20031;-50
2021/05/23 22:10:32;;;;;;;4.75;4.28;;;;;;;15.95;71.20;96679.97;5113948;28;20020;-46
2021/05/23 22:13:00;;;;;;;5.50;4.60;;;;;;;15.94;70.92;96681.72;5115021;28;20413;-50
2021/05/23 22:15:26;;;;;;;5.53;4.28;;;;;;;15.94;70.70;96688.78;5114958;28;20024;-53
2021/05/23 22:17:52;;;;;;;8.45;4.18;;;;;;;15.91;70.67;96688.03;5114871;28;20470;-51
2021/05/23 22:20:19;;;;;;;4.15;3.75;;;;;;;15.90;70.60;96686.31;5113207;28;20080;-52
2021/05/23 22:22:45;;;;;;;5.15;4.65;;;;;;;15.89;70.60;96695.19;5114558;28;20024;-50
2021/05/23 22:25:13;;;;;;;6.20;4.53;;;;;;;15.83;70.20;96686.78;5114731;28;20035;-50
2021/05/23 22:27:41;;;;;;;8.32;4.20;;;;;;;15.74;70.26;96683.72;5114871;28;20042;-45
2021/05/23 22:30:10;;;;;;;8.70;4.05;;;;;;;15.70;70.49;96689.25;5114517;28;20024;-52
2021/05/23 22:32:37;;;;;;;5.43;4.40;;;;;;;15.65;70.58;96689.50;5114259;28;20392;-48
2021/05/23 22:35:06;;;;;;;7.50;4.15;;;;;;;15.62;70.84;96685.25;5114258;28;20043;-49
2021/05/23 22:37:32;;;;;;;4.78;3.88;;;;;;;15.61;70.53;96683.56;5113353;28;20427;-50
2021/05/23 22:39:58;;;;;;;7.55;4.50;;;;;;;15.58;70.56;96686.38;5114482;27;20032;-46
2021/05/23 22:42:24;;;;;;;10.02;4.43;;;;;;;15.55;70.65;96686.53;5114553;28;20059;-48
2021/05/23 22:44:50;;;;;;;4.32;3.85;;;;;;;15.49;70.57;96693.03;5113943;28;20023;-49
2021/05/23 22:47:16;;;;;;;5.63;4.55;;;;;;;15.44;70.73;96681.03;5114352;28;20038;-48
2021/05/23 22:49:42;;;;;;;4.40;4.00;;;;;;;15.39;70.88;96687.38;5114379;28;20416;-50
2021/05/23 22:52:07;;;;;;;7.43;4.13;;;;;;;15.36;71.08;96695.50;5113108;28;20028;-52
2021/05/23 22:54:33;;;;;;;4.72;4.28;;;;;;;15.32;70.96;96695.75;5111513;28;20067;-48
2021/05/23 22:57:04;;;;;;;8.02;4.57;;;;;;;15.31;71.31;96700.16;5112515;28;20377;-51
2021/05/23 22:59:30;;;;;;;8.88;4.20;;;;;;;15.27;71.10;96702.09;5112492;28;20028;-46
2021/05/23 23:01:59;;;;;;;9.35;4.32;;;;;;;15.23;71.67;96697.94;5112437;28;20530;-55
2021/05/23 23:04:31;;;;;;;4.63;4.05;;;;;;;15.22;71.25;96700.66;5111903;28;20489;-50
2021/05/23 23:06:57;;;;;;;5.80;4.78;;;;;;;15.18;71.61;96705.25;5112073;28;20024;-50
2021/05/23 23:09:23;;;;;;;6.25;4.05;;;;;;;15.15;71.46;96700.97;5113858;28;20099;-45
2021/05/23 23:11:48;;;;;;;8.20;4.32;;;;;;;15.12;71.37;96688.00;5113823;28;20031;-49
2021/05/23 23:14:14;;;;;;;7.22;4.13;;;;;;;15.11;71.27;96686.28;5113931;28;20031;-47
2021/05/23 23:16:40;;;;;;;5.05;4.55;;;;;;;15.12;71.19;96684.50;5112211;28;20024;-48
2021/05/23 23:19:08;;;;;;;8.48;3.80;;;;;;;15.11;71.36;96682.81;5113823;28;20450;-46
2021/05/23 23:21:38;;;;;;;10.25;4.57;;;;;;;15.06;71.72;96683.06;5113805;28;20103;-48
2021/05/23 23:24:05;;;;;;;6.55;4.53;;;;;;;15.05;71.83;96694.50;5113393;28;20438;-46
2021/05/23 23:26:31;;;;;;;6.72;4.55;;;;;;;15.00;71.18;96693.91;5113708;28;20503;-47
2021/05/23 23:28:57;;;;;;;7.30;4.60;;;;;;;14.83;71.96;96687.75;5113769;28;20024;-51
2021/05/23 23:31:22;;;;;;;5.82;4.20;;;;;;;14.77;72.32;96686.28;5113685;28;20027;-49
2021/05/23 23:33:48;;;;;;;6.95;4.78;;;;;;;14.74;72.44;96683.78;5113613;28;20104;-50
2021/05/23 23:36:14;;;;;;;8.75;4.43;;;;;;;14.62;73.04;96677.41;5113035;28;20142;-48
2021/05/23 23:38:42;;;;;;;5.28;4.57;;;;;;;14.55;73.25;96672.53;5113622;28;20032;-51
2021/05/23 23:41:09;;;;;;;4.72;4.30;;;;;;;14.54;73.15;96682.19;5113643;28;20024;-46
2021/05/23 23:43:34;;;;;;;6.00;4.28;;;;;;;14.53;72.38;96684.00;5113675;28;20082;-49
2021/05/23 23:46:00;;;;;;;11.93;4.13;;;;;;;14.51;72.47;96677.94;5113607;28;20039;-46
2021/05/23 23:48:26;;;;;;;7.78;4.22;;;;;;;14.51;72.85;96675.31;5113122;28;20489;-49
2021/05/23 23:50:52;;;;;;;6.55;4.32;;;;;;;14.54;72.92;96663.75;5113506;28;20351;-48
2021/05/23 23:53:18;;;;;;;8.02;5.35;;;;;;;14.48;73.98;96661.47;5113603;28;20019;-46
2021/05/23 23:55:45;;;;;;;5.65;5.15;;;;;;;14.42;74.21;96664.41;5113312;28;20024;-49
2021/05/23 23:58:10;;;;;;;5.13;4.63;;;;;;;14.47;73.86;96672.91;5116393;28;20442;-52
